Pagina principale
METAR-TAF:

METAR-TAF

Aeroporti :

Aeroporto di Debrecen

Debrecen, Ungheria

latitudine: 47-29N, longitudine: 021-36E, altezza: 108 m

Osservazione

Il bollettino è stato emesso 36 minuti fa, alle 14:15 UTC
Vento 4 kt da direzioni variabili
Temperature 27°C
Umidità 42%
Pressione 1016 hPa
Visibilità 10 km o più
nessuna nube inferiore a 1500 m e nessun cumulonembo

METAR: LHDC 171415Z AUTO VRB04KT CAVOK 27/13 Q1016 NOSIG

Ora: 16:51 (14:51 UTC)

Previsione

Il bollettino è stato emesso 36 minuti fa, alle 14:15 UTC
Previsione valida dal 17 alle 15 UTC al 17 alle 24 UTC
Vento 6 kt da nord/nord-ovest
Visibilità 10 km o più
nessuna nube inferiore a 1500 m e nessun cumulonembo
Evoluzione graduale
dal 17 alle 15 UTC al 17 alle 18 UTC
Vento 6 kt da nord-est
Evoluzione graduale
dal 17 alle 18 UTC al 17 alle 21 UTC
Vento 4 kt da sud-est

TAF: LHDC 171415Z 1715/1724 34006KT CAVOK BECMG 1715/1718 05006KT BECMG 1718/1721 13004KT

Osservazioni e previsioni meteorologiche di più di 4000 aeroporti (messaggi METAR e TAF).

Le stazioni disponibili sono rappresentate dai dischi gialli e rossi sulla carta.

Puntare il mouse per vedere il nome della stazione.

Clicca sopra per visualizzare le osservazioni e previsioni meteorologiche.

Per cambiare la mappa : fare clic sui pulsanti verdi con una croce nera per ingrandire, il pulsante verde con un trattino per diminuire, o sulla freccia verde per le mappe adiacenti.


METAR-TAF: